createdAt,value
2019-04-11T00:02:28.891Z,3.10
2019-04-11T00:05:02.257Z,3.10
2019-04-11T00:07:34.282Z,3.00
2019-04-11T00:10:06.224Z,3.00
2019-04-11T00:12:38.846Z,2.90
2019-04-11T00:15:10.966Z,2.90
2019-04-11T00:17:42.514Z,2.90
2019-04-11T00:20:13.975Z,2.80
2019-04-11T00:22:45.839Z,2.80
2019-04-11T00:25:17.705Z,2.80
2019-04-11T00:27:49.445Z,2.80
2019-04-11T00:30:21.129Z,2.80
2019-04-11T00:32:53.821Z,2.70
2019-04-11T00:35:25.920Z,2.70
2019-04-11T00:37:57.501Z,2.70
2019-04-11T00:40:29.153Z,2.60
2019-04-11T00:43:01.102Z,2.60
2019-04-11T00:45:33.814Z,2.60
2019-04-11T00:48:05.808Z,2.60
2019-04-11T00:50:37.774Z,2.60
2019-04-11T00:53:09.774Z,2.50
2019-04-11T00:55:41.881Z,2.50
2019-04-11T00:58:13.766Z,2.50
2019-04-11T01:00:45.705Z,2.50
2019-04-11T01:03:17.896Z,2.50
2019-04-11T01:05:49.933Z,2.40
2019-04-11T01:08:21.838Z,2.40
2019-04-11T01:10:53.405Z,2.30
2019-04-11T01:13:25.865Z,2.30
2019-04-11T01:16:09.691Z,2.30
2019-04-11T01:18:42.342Z,2.30
2019-04-11T01:21:14.314Z,2.30
2019-04-11T01:23:47.035Z,2.30
2019-04-11T01:26:19.140Z,2.20
2019-04-11T01:28:51.994Z,2.20
2019-04-11T01:31:25.812Z,2.20
2019-04-11T01:33:57.458Z,2.20
2019-04-11T01:36:29.109Z,2.20
2019-04-11T01:39:03.085Z,2.20
2019-04-11T01:41:34.592Z,2.20
2019-04-11T01:44:07.551Z,2.20
2019-04-11T01:46:38.928Z,2.20
2019-04-11T01:49:20.312Z,2.20
2019-04-11T01:51:51.947Z,2.20
2019-04-11T01:54:23.755Z,2.10
2019-04-11T01:56:55.800Z,2.20
2019-04-11T01:59:27.789Z,2.10
2019-04-11T02:02:19.159Z,2.10
2019-04-11T02:05:02.855Z,2.10
2019-04-11T02:07:35.018Z,2.00
2019-04-11T02:10:07.096Z,2.00
2019-04-11T02:12:39.380Z,2.00
2019-04-11T02:15:12.247Z,2.00
2019-04-11T02:17:44.061Z,1.90
2019-04-11T02:20:16.637Z,1.90
2019-04-11T02:22:52.862Z,1.90
2019-04-11T02:25:44.950Z,1.90
2019-04-11T02:28:17.766Z,2.00
2019-04-11T02:30:53.559Z,2.00
2019-04-11T02:33:26.462Z,1.90
2019-04-11T02:35:58.119Z,1.90
2019-04-11T02:38:30.495Z,1.90
2019-04-11T02:41:03.690Z,1.90
2019-04-11T02:43:36.587Z,1.90
2019-04-11T02:46:17.353Z,1.90
2019-04-11T02:48:42.679Z,1.90
2019-04-11T02:51:14.685Z,1.90
2019-04-11T02:53:47.260Z,1.90
2019-04-11T02:56:19.411Z,1.90
2019-04-11T02:58:52.110Z,1.90
2019-04-11T03:01:24.293Z,1.80
2019-04-11T03:03:58.948Z,1.80
2019-04-11T03:06:30.988Z,1.80
2019-04-11T03:09:02.775Z,1.80
2019-04-11T03:11:35.060Z,1.80
2019-04-11T03:14:07.638Z,1.80
2019-04-11T03:16:52.079Z,1.80
2019-04-11T03:19:33.031Z,1.80
2019-04-11T03:21:47.323Z,1.80
2019-04-11T03:24:19.269Z,1.80
2019-04-11T03:26:52.629Z,1.80
2019-04-11T03:29:26.519Z,1.80
2019-04-11T03:33:14.846Z,1.80
2019-04-11T03:35:20.758Z,1.70
2019-04-11T03:37:27.304Z,1.80
2019-04-11T03:40:00.742Z,1.80
2019-04-11T03:42:28.551Z,1.80
2019-04-11T03:44:48.341Z,1.80
2019-04-11T03:47:33.509Z,1.80
2019-04-11T03:49:57.793Z,1.80
2019-04-11T03:52:25.880Z,1.80
2019-04-11T03:54:58.853Z,1.70
2019-04-11T03:57:31.855Z,1.70
2019-04-11T04:00:06.073Z,1.70
2019-04-11T04:02:37.758Z,1.70
2019-04-11T04:05:10.911Z,1.80
2019-04-11T04:07:44.173Z,1.80
2019-04-11T04:10:18.429Z,1.80
2019-04-11T04:12:51.478Z,1.80
2019-04-11T04:15:59.782Z,1.80
2019-04-11T04:18:56.309Z,1.80
2019-04-11T04:21:36.066Z,1.80
2019-04-11T04:24:30.318Z,1.80
2019-04-11T04:27:01.776Z,1.80
2019-04-11T04:29:36.287Z,1.80
2019-04-11T04:32:08.217Z,1.80
2019-04-11T04:34:40.180Z,1.80
2019-04-11T04:37:16.255Z,1.90
2019-04-11T04:39:50.294Z,2.00
2019-04-11T04:42:27.200Z,2.00
2019-04-11T04:44:55.977Z,2.00
2019-04-11T04:47:38.530Z,2.00
2019-04-11T04:50:01.588Z,2.10
2019-04-11T04:52:36.597Z,2.10
2019-04-11T04:55:08.668Z,2.20
2019-04-11T04:57:40.747Z,2.20
2019-04-11T05:00:14.845Z,2.20
2019-04-11T05:02:48.001Z,2.20
2019-04-11T05:05:21.891Z,2.20
2019-04-11T05:07:54.162Z,2.20
2019-04-11T05:10:28.472Z,2.30
2019-04-11T05:13:00.361Z,2.40
2019-04-11T05:15:32.448Z,2.40
2019-04-11T05:18:04.327Z,2.50
2019-04-11T05:20:36.479Z,2.60
2019-04-11T05:23:08.490Z,2.60
2019-04-11T05:25:42.513Z,2.60
2019-04-11T05:28:14.499Z,2.60
2019-04-11T05:30:46.424Z,2.60
2019-04-11T05:33:18.383Z,2.50
2019-04-11T05:35:52.121Z,2.50
2019-04-11T05:38:25.128Z,2.60
2019-04-11T05:40:57.180Z,2.60
2019-04-11T05:43:35.931Z,2.60
2019-04-11T05:46:07.200Z,2.70
2019-04-11T05:48:58.945Z,2.70
2019-04-11T05:51:36.943Z,2.70
2019-04-11T05:54:06.265Z,2.80
2019-04-11T05:56:35.642Z,2.90
2019-04-11T05:59:18.862Z,2.90
2019-04-11T06:01:56.108Z,2.90
2019-04-11T06:04:53.048Z,3.00
2019-04-11T06:07:42.158Z,3.10
2019-04-11T06:10:20.511Z,3.10
2019-04-11T06:13:22.694Z,3.20
2019-04-11T06:16:00.662Z,3.20
2019-04-11T06:19:06.623Z,3.30
2019-04-11T06:21:47.001Z,3.30
2019-04-11T06:24:44.720Z,3.30
2019-04-11T06:27:24.118Z,3.50
2019-04-11T06:30:15.843Z,3.60
2019-04-11T06:33:06.539Z,3.70
2019-04-11T06:36:11.739Z,3.70
2019-04-11T06:38:49.175Z,3.90
2019-04-11T06:41:32.783Z,4.50
2019-04-11T06:44:25.875Z,6.10
2019-04-11T06:47:10.313Z,7.70
2019-04-11T06:50:02.908Z,8.80
2019-04-11T06:52:35.059Z,9.50
2019-04-11T06:55:28.978Z,10.20
2019-04-11T06:58:06.747Z,10.60
2019-04-11T07:00:43.207Z,10.90
2019-04-11T07:03:22.268Z,11.10
2019-04-11T07:05:50.983Z,11.20
2019-04-11T07:08:27.774Z,11.30
2019-04-11T07:11:04.541Z,11.60
2019-04-11T07:13:47.678Z,11.80
2019-04-11T07:16:21.870Z,12.10
2019-04-11T07:19:17.694Z,12.50
2019-04-11T07:21:50.404Z,12.70
2019-04-11T07:24:22.457Z,13.00
2019-04-11T07:27:04.550Z,13.30
2019-04-11T07:30:09.348Z,13.30
2019-04-11T07:32:42.750Z,13.60
2019-04-11T07:35:45.162Z,14.10
2019-04-11T07:38:24.338Z,14.30
2019-04-11T07:41:24.079Z,14.40
2019-04-11T07:43:56.502Z,14.70
2019-04-11T07:46:53.634Z,15.20
2019-04-11T07:49:34.953Z,15.40
2019-04-11T07:52:06.843Z,14.80
2019-04-11T07:54:39.009Z,13.80
2019-04-11T07:57:23.789Z,12.40
2019-04-11T08:00:33.446Z,11.30
2019-04-11T08:03:14.471Z,11.10
2019-04-11T08:06:05.223Z,10.30
2019-04-11T08:08:49.436Z,9.50
2019-04-11T08:11:42.149Z,9.00
2019-04-11T08:14:53.410Z,9.10
2019-04-11T08:17:38.536Z,8.90
2019-04-11T08:20:26.419Z,8.50
2019-04-11T08:23:03.523Z,8.40
2019-04-11T08:26:15.011Z,8.30
2019-04-11T08:28:59.236Z,8.20
2019-04-11T08:31:48.683Z,8.00
2019-04-11T08:34:21.787Z,7.80
2019-04-11T08:37:27.685Z,7.80
2019-04-11T08:40:03.809Z,7.90
2019-04-11T08:42:56.980Z,8.20
2019-04-11T08:45:29.752Z,8.90
2019-04-11T08:48:04.492Z,9.80
2019-04-11T08:50:40.795Z,10.10
2019-04-11T08:53:32.961Z,10.10
2019-04-11T08:56:05.499Z,9.80
2019-04-11T08:58:57.294Z,10.10
2019-04-11T09:01:29.812Z,10.20
2019-04-11T09:04:30.243Z,10.20
2019-04-11T09:07:01.534Z,9.90
2019-04-11T09:10:00.235Z,9.30
2019-04-11T09:12:34.205Z,8.90
2019-04-11T09:15:31.179Z,8.40
2019-04-11T09:18:11.869Z,8.10
2019-04-11T09:21:02.268Z,7.80
2019-04-11T09:23:35.594Z,7.50
2019-04-11T09:26:34.623Z,7.30
2019-04-11T09:29:07.313Z,7.30
2019-04-11T09:32:18.156Z,7.30
2019-04-11T09:34:59.607Z,7.40
2019-04-11T09:37:35.975Z,7.50
2019-04-11T09:40:20.091Z,7.50
2019-04-11T09:43:11.482Z,7.40
2019-04-11T09:46:08.174Z,7.40
2019-04-11T09:49:08.695Z,7.30
2019-04-11T09:52:07.311Z,7.30
2019-04-11T09:55:12.894Z,7.30
2019-04-11T09:57:48.739Z,7.30
2019-04-11T10:00:41.008Z,7.20
2019-04-11T10:03:28.825Z,7.30
2019-04-11T10:06:40.910Z,7.50
2019-04-11T10:09:13.588Z,7.60
2019-04-11T10:12:06.516Z,7.70
2019-04-11T10:14:39.720Z,7.80
2019-04-11T10:17:31.756Z,7.80
2019-04-11T10:20:08.714Z,7.90
2019-04-11T10:23:03.329Z,8.70
2019-04-11T10:25:41.311Z,9.90
2019-04-11T10:28:33.486Z,11.00
2019-04-11T10:31:14.717Z,11.50
2019-04-11T10:34:23.702Z,12.20
2019-04-11T10:37:16.069Z,12.20
2019-04-11T10:40:08.066Z,11.60
2019-04-11T10:42:42.491Z,11.40
2019-04-11T10:45:34.665Z,11.10
2019-04-11T10:48:07.630Z,10.70
2019-04-11T10:50:58.536Z,10.50
2019-04-11T10:53:31.205Z,10.50
2019-04-11T10:56:28.461Z,10.40
2019-04-11T10:59:02.386Z,10.40
2019-04-11T11:02:06.529Z,10.10
2019-04-11T11:04:48.522Z,9.60
2019-04-11T11:07:24.631Z,9.30
2019-04-11T11:10:07.189Z,9.10
2019-04-11T11:12:57.385Z,9.10
2019-04-11T11:15:33.772Z,9.00
2019-04-11T11:18:54.156Z,9.10
2019-04-11T11:21:05.569Z,9.20
2019-04-11T11:23:58.461Z,9.40
2019-04-11T11:26:36.311Z,9.50
2019-04-11T11:29:26.643Z,9.60
2019-04-11T11:32:07.051Z,9.60
2019-04-11T11:34:55.144Z,9.60
2019-04-11T11:37:50.721Z,9.60
2019-04-11T11:40:54.754Z,9.60
2019-04-11T11:43:33.044Z,9.40
2019-04-11T11:46:26.721Z,9.30
2019-04-11T11:49:35.803Z,9.50
2019-04-11T11:52:13.084Z,9.60
2019-04-11T11:54:49.049Z,9.60
2019-04-11T11:57:29.555Z,9.70
2019-04-11T12:00:12.682Z,9.70
2019-04-11T12:03:02.062Z,9.60
2019-04-11T12:05:45.618Z,9.50
2019-04-11T12:08:44.235Z,9.30
2019-04-11T12:11:15.665Z,9.10
2019-04-11T12:14:15.786Z,9.10
2019-04-11T12:17:06.615Z,9.10
2019-04-11T12:19:53.246Z,9.20
2019-04-11T12:22:22.627Z,9.20
2019-04-11T12:25:09.820Z,9.10
2019-04-11T12:28:00.345Z,9.00
2019-04-11T12:30:57.876Z,8.90
2019-04-11T12:33:52.114Z,8.90
2019-04-11T12:36:34.738Z,8.90
2019-04-11T12:39:28.871Z,9.10
2019-04-11T12:42:23.291Z,9.40
2019-04-11T12:45:14.317Z,9.70
2019-04-11T12:47:54.462Z,9.80
2019-04-11T12:50:46.051Z,9.80
2019-04-11T12:53:19.680Z,9.80
2019-04-11T12:56:04.332Z,9.80
2019-04-11T12:59:01.478Z,9.70
2019-04-11T13:01:53.729Z,9.50
2019-04-11T13:04:40.037Z,9.40
2019-04-11T13:07:36.363Z,9.20
2019-04-11T13:10:24.421Z,9.20
2019-04-11T13:13:22.973Z,9.20
2019-04-11T13:16:11.866Z,9.20
2019-04-11T13:19:00.910Z,9.20
2019-04-11T13:21:53.925Z,9.10
2019-04-11T13:24:45.343Z,8.80
2019-04-11T13:27:40.873Z,8.60
2019-04-11T13:30:31.685Z,8.60
2019-04-11T13:33:08.749Z,8.70
2019-04-11T13:36:07.451Z,8.70
2019-04-11T13:38:51.796Z,8.70
2019-04-11T13:41:44.557Z,8.70
2019-04-11T13:44:23.851Z,8.70
2019-04-11T13:47:21.941Z,8.50
2019-04-11T13:50:04.124Z,8.40
2019-04-11T13:52:51.979Z,8.20
2019-04-11T13:55:30.280Z,8.20
2019-04-11T13:58:21.427Z,8.20
2019-04-11T14:00:59.128Z,8.30
2019-04-11T14:03:52.028Z,8.60
2019-04-11T14:06:29.683Z,8.80
2019-04-11T14:09:22.441Z,9.10
2019-04-11T14:11:55.523Z,9.30
2019-04-11T14:14:29.500Z,9.50
2019-04-11T14:17:12.010Z,9.40
2019-04-11T14:20:03.544Z,9.20
2019-04-11T14:22:55.855Z,9.00
2019-04-11T14:25:57.831Z,8.60
2019-04-11T14:28:37.083Z,8.40
2019-04-11T14:31:44.272Z,8.40
2019-04-11T14:34:49.936Z,8.40
2019-04-11T14:37:38.238Z,8.30
2019-04-11T14:40:25.471Z,8.40
2019-04-11T14:43:34.407Z,8.40
2019-04-11T14:46:26.107Z,8.30
2019-04-11T14:49:11.188Z,8.20
2019-04-11T14:52:07.527Z,8.10
2019-04-11T14:54:51.567Z,8.40
2019-04-11T14:57:57.642Z,8.60
2019-04-11T15:00:34.148Z,8.90
2019-04-11T15:03:27.214Z,9.10
2019-04-11T15:06:19.701Z,9.30
2019-04-11T15:09:10.909Z,9.30
2019-04-11T15:11:57.712Z,9.20
2019-04-11T15:14:51.825Z,9.10
2019-04-11T15:17:27.058Z,8.80
2019-04-11T15:20:11.979Z,8.60
2019-04-11T15:22:48.459Z,8.30
2019-04-11T15:25:30.454Z,8.10
2019-04-11T15:28:19.216Z,7.90
2019-04-11T15:30:53.173Z,7.60
2019-04-11T15:33:44.753Z,7.40
2019-04-11T15:36:18.623Z,7.30
2019-04-11T15:39:09.914Z,7.30
2019-04-11T15:41:42.483Z,7.20
2019-04-11T15:44:47.712Z,7.20
2019-04-11T15:47:20.675Z,7.30
2019-04-11T15:50:13.235Z,7.40
2019-04-11T15:52:51.421Z,7.40
2019-04-11T15:56:00.161Z,7.50
2019-04-11T15:58:42.391Z,7.60
2019-04-11T16:01:34.999Z,7.70
2019-04-11T16:04:20.255Z,7.70
2019-04-11T16:07:14.139Z,7.60
2019-04-11T16:09:46.517Z,7.60
2019-04-11T16:12:27.896Z,7.50
2019-04-11T16:15:11.239Z,7.50
2019-04-11T16:18:02.965Z,7.60
2019-04-11T16:20:35.063Z,7.60
2019-04-11T16:23:18.248Z,7.60
2019-04-11T16:25:56.771Z,7.60
2019-04-11T16:29:01.549Z,7.60
2019-04-11T16:31:40.160Z,7.60
2019-04-11T16:34:48.194Z,7.40
2019-04-11T16:37:17.582Z,7.30
2019-04-11T16:40:05.153Z,7.20
2019-04-11T16:42:47.681Z,7.10
2019-04-11T16:45:40.642Z,7.10
2019-04-11T16:48:12.387Z,7.00
2019-04-11T16:50:44.243Z,7.00
2019-04-11T16:53:16.191Z,6.90
2019-04-11T16:55:48.263Z,6.80
2019-04-11T16:58:19.825Z,6.70
2019-04-11T17:00:52.585Z,6.50
2019-04-11T17:03:25.691Z,6.40
2019-04-11T17:06:13.451Z,6.30
2019-04-11T17:08:56.368Z,6.20
2019-04-11T17:11:28.190Z,6.20
2019-04-11T17:14:00.043Z,6.10
2019-04-11T17:16:32.205Z,6.10
2019-04-11T17:19:05.555Z,6.00
2019-04-11T17:21:43.334Z,6.00
2019-04-11T17:24:11.931Z,6.00
2019-04-11T17:26:43.089Z,6.00
2019-04-11T17:29:15.083Z,5.90
2019-04-11T17:31:47.415Z,5.90
2019-04-11T17:34:19.875Z,5.90
2019-04-11T17:36:51.688Z,5.90
2019-04-11T17:39:23.423Z,5.80
2019-04-11T17:41:55.153Z,5.80
2019-04-11T17:44:26.936Z,5.80
2019-04-11T17:46:58.829Z,5.70
2019-04-11T17:49:30.968Z,5.70
2019-04-11T17:52:05.177Z,5.70
2019-04-11T17:54:36.929Z,5.70
2019-04-11T17:57:10.019Z,5.70
2019-04-11T17:59:41.936Z,5.60
2019-04-11T18:02:13.684Z,5.60
2019-04-11T18:04:47.946Z,5.60
2019-04-11T18:07:18.945Z,5.60
2019-04-11T18:09:50.623Z,5.50
2019-04-11T18:12:23.809Z,5.50
2019-04-11T18:14:56.516Z,5.50
2019-04-11T18:17:28.530Z,5.50
2019-04-11T18:20:00.280Z,5.50
2019-04-11T18:22:32.570Z,5.40
2019-04-11T18:25:04.125Z,5.40
2019-04-11T18:27:36.278Z,5.40
2019-04-11T18:30:09.616Z,5.40
2019-04-11T18:32:42.594Z,5.30
2019-04-11T18:35:14.620Z,5.30
2019-04-11T18:37:46.781Z,5.30
2019-04-11T18:40:19.510Z,5.40
2019-04-11T18:42:51.631Z,5.40
2019-04-11T18:45:23.515Z,5.40
2019-04-11T18:47:56.997Z,5.50
2019-04-11T18:50:29.015Z,5.50
2019-04-11T18:53:00.997Z,5.40
2019-04-11T18:55:33.255Z,5.40
2019-04-11T18:58:05.848Z,5.40
2019-04-11T19:00:38.410Z,5.40
2019-04-11T19:03:10.884Z,5.30
2019-04-11T19:05:43.007Z,5.30
2019-04-11T19:08:16.487Z,5.20
2019-04-11T19:10:49.815Z,5.20
2019-04-11T19:13:21.725Z,5.10
2019-04-11T19:15:53.683Z,5.10
2019-04-11T19:18:25.397Z,5.00
2019-04-11T19:20:58.673Z,5.00
2019-04-11T19:23:30.389Z,5.00
2019-04-11T19:26:02.720Z,4.90
2019-04-11T19:28:34.501Z,4.90
2019-04-11T19:31:06.664Z,4.90
2019-04-11T19:33:39.995Z,4.90
2019-04-11T19:36:12.880Z,4.80
2019-04-11T19:38:45.111Z,4.80
2019-04-11T19:41:18.031Z,4.80
2019-04-11T19:43:50.025Z,4.80
2019-04-11T19:46:21.715Z,4.80
2019-04-11T19:48:57.079Z,4.80
2019-04-11T19:51:29.092Z,4.80
2019-04-11T19:54:03.295Z,4.70
2019-04-11T19:56:49.718Z,4.70
2019-04-11T19:59:21.571Z,4.70
2019-04-11T20:01:53.840Z,4.70
2019-04-11T20:04:26.667Z,4.60
2019-04-11T20:06:59.451Z,4.70
2019-04-11T20:09:31.183Z,4.60
2019-04-11T20:12:03.427Z,4.60
2019-04-11T20:14:35.265Z,4.60
2019-04-11T20:17:09.105Z,4.50
2019-04-11T20:19:40.475Z,4.50
2019-04-11T20:22:12.296Z,4.50
2019-04-11T20:24:46.885Z,4.50
2019-04-11T20:27:20.288Z,4.50
2019-04-11T20:29:55.140Z,4.40
2019-04-11T20:32:25.188Z,4.40
2019-04-11T20:34:57.059Z,4.40
2019-04-11T20:37:38.719Z,4.30
2019-04-11T20:40:04.995Z,4.30
2019-04-11T20:42:37.042Z,4.30
2019-04-11T20:45:08.801Z,4.30
2019-04-11T20:47:40.891Z,4.30
2019-04-11T20:50:12.542Z,4.20
2019-04-11T20:52:45.003Z,4.20
2019-04-11T20:55:16.745Z,4.20
2019-04-11T20:57:49.379Z,4.20
2019-04-11T21:00:21.511Z,4.20
2019-04-11T21:02:58.072Z,4.10
2019-04-11T21:05:30.790Z,4.10
2019-04-11T21:08:02.994Z,4.10
2019-04-11T21:10:36.014Z,4.10
2019-04-11T21:13:07.876Z,4.00
2019-04-11T21:15:40.408Z,4.00
2019-04-11T21:18:11.936Z,3.90
2019-04-11T21:20:44.135Z,3.90
2019-04-11T21:23:24.345Z,3.90
2019-04-11T21:25:50.460Z,3.80
2019-04-11T21:28:24.098Z,3.80
2019-04-11T21:30:59.889Z,3.80
2019-04-11T21:33:34.207Z,3.80
2019-04-11T21:36:05.621Z,3.70
2019-04-11T21:38:37.578Z,3.70
2019-04-11T21:41:10.660Z,3.70
2019-04-11T21:43:44.146Z,3.70
2019-04-11T21:46:17.000Z,3.70
2019-04-11T21:48:48.942Z,3.60
2019-04-11T21:51:20.986Z,3.60
2019-04-11T21:53:52.771Z,3.60
2019-04-11T21:56:25.344Z,3.50
2019-04-11T21:58:57.229Z,3.50
2019-04-11T22:01:29.508Z,3.50
2019-04-11T22:04:01.325Z,3.50
2019-04-11T22:06:33.113Z,3.50
2019-04-11T22:09:05.657Z,3.50
2019-04-11T22:11:38.376Z,3.40
2019-04-11T22:14:12.580Z,3.40
2019-04-11T22:16:45.734Z,3.40
2019-04-11T22:19:17.742Z,3.30
2019-04-11T22:21:49.484Z,3.30
2019-04-11T22:24:22.437Z,3.30
2019-04-11T22:26:55.782Z,3.30
2019-04-11T22:29:28.322Z,3.20
2019-04-11T22:32:01.686Z,3.20
2019-04-11T22:34:43.735Z,3.20
2019-04-11T22:37:15.599Z,3.20
2019-04-11T22:39:47.383Z,3.20
2019-04-11T22:42:19.419Z,3.10
2019-04-11T22:44:51.379Z,3.10
2019-04-11T22:47:23.568Z,3.10
2019-04-11T22:49:56.796Z,3.10
2019-04-11T22:52:28.586Z,3.10
2019-04-11T22:55:00.212Z,3.10
2019-04-11T22:57:32.141Z,3.00
2019-04-11T23:00:04.428Z,3.00
2019-04-11T23:02:44.972Z,3.00
2019-04-11T23:05:17.987Z,3.00
2019-04-11T23:07:49.693Z,3.00
2019-04-11T23:10:21.780Z,3.00
2019-04-11T23:12:54.096Z,3.00
2019-04-11T23:15:25.813Z,3.00
2019-04-11T23:17:57.885Z,3.00
2019-04-11T23:20:31.123Z,2.90
2019-04-11T23:23:03.708Z,2.90
2019-04-11T23:25:35.958Z,2.90
2019-04-11T23:28:08.058Z,2.80
2019-04-11T23:30:40.129Z,2.80
2019-04-11T23:33:12.822Z,2.80
2019-04-11T23:35:45.108Z,2.80
2019-04-11T23:38:17.290Z,2.80
2019-04-11T23:40:51.203Z,2.80
2019-04-11T23:43:22.878Z,2.80
2019-04-11T23:45:55.758Z,2.80
2019-04-11T23:48:28.137Z,2.90
2019-04-11T23:51:00.078Z,2.90
2019-04-11T23:53:32.946Z,2.90
2019-04-11T23:56:04.927Z,2.90
2019-04-11T23:58:36.896Z,2.90
